Time;durP1;ratioP1;P1;durP2;ratioP2;P2;SDS_P1;SDS_P2;PMS_P1;PMS_P2;Temp;Humidity;BMP_temperature;BMP_pressure;BME280_temperature;BME280_humidity;BME280_pressure;Samples;Min_cycle;Max_cycle;Signal;HPM_P1;HPM_P2
2022/03/01 00:01:40;;;;;;;14.48;5.97;;;;;;;0.68;100.00;102826.06;6139288;28;20056;-79
2022/03/01 00:04:41;;;;;;;16.90;5.60;;;;;;;0.62;100.00;102816.47;6137106;28;20052;-79
2022/03/01 00:07:43;;;;;;;15.95;5.15;;;;;;;0.56;100.00;102828.41;6143033;29;20048;-79
2022/03/01 00:10:45;;;;;;;13.43;4.55;;;;;;;0.46;100.00;102830.81;6145172;28;20051;-80
2022/03/01 00:13:47;;;;;;;12.25;5.72;;;;;;;0.47;100.00;102834.25;6139619;28;20418;-79
2022/03/01 00:16:48;;;;;;;10.60;4.35;;;;;;;0.46;100.00;102824.75;6147831;28;20047;-80
2022/03/01 00:19:49;;;;;;;12.20;4.50;;;;;;;0.42;100.00;102818.63;6147713;28;20051;-79
2022/03/01 00:22:51;;;;;;;10.27;4.82;;;;;;;0.41;100.00;102816.00;6141243;28;20047;-79
2022/03/01 00:25:53;;;;;;;13.18;5.80;;;;;;;0.36;100.00;102815.03;6143878;29;20058;-79
2022/03/01 00:28:55;;;;;;;8.75;4.18;;;;;;;0.35;100.00;102826.22;6147682;28;20048;-79
2022/03/01 00:31:56;;;;;;;11.02;4.80;;;;;;;0.33;100.00;102828.78;6146766;28;20058;-80
2022/03/01 00:34:57;;;;;;;11.95;4.88;;;;;;;0.33;100.00;102821.03;6144316;28;20055;-79
2022/03/01 00:37:59;;;;;;;9.77;4.90;;;;;;;0.31;100.00;102824.41;6139480;28;20047;-80
2022/03/01 00:41:02;;;;;;;12.43;4.57;;;;;;;0.27;100.00;102822.56;6146960;28;20131;-79
2022/03/01 00:44:04;;;;;;;9.80;4.85;;;;;;;0.21;100.00;102819.03;6147392;28;20495;-80
2022/03/01 00:47:06;;;;;;;10.13;4.72;;;;;;;0.14;100.00;102817.16;6147542;28;20053;-79
2022/03/01 00:50:08;;;;;;;12.60;5.00;;;;;;;0.16;100.00;102815.47;6147436;28;20059;-80
2022/03/01 00:53:09;;;;;;;18.00;5.63;;;;;;;0.15;100.00;102818.03;6136813;28;20054;-80
2022/03/01 00:56:12;;;;;;;10.43;4.45;;;;;;;0.15;100.00;102812.84;6129682;28;20043;-80
2022/03/01 00:59:13;;;;;;;13.52;5.47;;;;;;;0.08;100.00;102817.00;6131511;28;20078;-80
2022/03/01 01:02:15;;;;;;;7.78;4.47;;;;;;;0.07;100.00;102825.59;6142746;29;20059;-80
2022/03/01 01:05:16;;;;;;;8.88;4.75;;;;;;;0.04;100.00;102812.59;6138231;28;20054;-79
2022/03/01 01:08:18;;;;;;;7.43;4.00;;;;;;;-0.10;100.00;102813.97;6147115;28;20070;-80
2022/03/01 01:11:20;;;;;;;9.57;5.25;;;;;;;-0.20;100.00;102809.44;6146271;28;20055;-80
2022/03/01 01:14:22;;;;;;;11.05;4.50;;;;;;;-0.27;100.00;102806.72;6147198;28;20426;-80
2022/03/01 01:17:23;;;;;;;11.43;3.97;;;;;;;-0.23;100.00;102799.00;6146707;28;20047;-80
2022/03/01 01:20:24;;;;;;;9.88;4.13;;;;;;;-0.26;100.00;102798.13;6146410;28;20048;-80
2022/03/01 01:23:26;;;;;;;14.38;4.70;;;;;;;-0.28;100.00;102793.72;6146831;28;20059;-81
2022/03/01 01:26:28;;;;;;;13.00;4.53;;;;;;;-0.27;100.00;102790.34;6147196;28;20051;-80
2022/03/01 01:29:30;;;;;;;12.07;5.10;;;;;;;-0.20;100.00;102797.38;6146849;28;20059;-80
2022/03/01 01:32:31;;;;;;;12.45;5.32;;;;;;;-0.22;100.00;102806.81;6146497;28;20055;-81
2022/03/01 01:35:36;;;;;;;11.70;4.78;;;;;;;-0.23;100.00;102801.59;6146716;28;20055;-80
2022/03/01 01:38:39;;;;;;;11.38;5.13;;;;;;;-0.26;100.00;102798.13;6119622;29;20503;-80
2022/03/01 01:41:42;;;;;;;7.85;4.47;;;;;;;-0.33;100.00;102795.34;6122670;29;20071;-80
2022/03/01 01:44:44;;;;;;;10.80;4.45;;;;;;;-0.41;100.00;102794.25;6123158;29;20055;-81
2022/03/01 01:47:46;;;;;;;8.80;4.63;;;;;;;-0.45;100.00;102800.22;6122950;29;20054;-80
2022/03/01 01:50:47;;;;;;;8.68;4.22;;;;;;;-0.52;100.00;102805.19;6122094;29;20051;-81
2022/03/01 01:53:49;;;;;;;13.75;6.57;;;;;;;-0.57;100.00;102793.03;6122718;29;20051;-80
2022/03/01 01:56:52;;;;;;;7.22;4.00;;;;;;;-0.64;100.00;102804.88;6122585;29;20055;-80
2022/03/01 01:59:55;;;;;;;11.85;5.45;;;;;;;-0.69;100.00;102800.44;6122385;29;20051;-80
2022/03/01 02:02:58;;;;;;;12.00;5.68;;;;;;;-0.74;100.00;102812.34;6122245;29;20649;-80
2022/03/01 02:05:59;;;;;;;12.85;5.20;;;;;;;-0.75;100.00;102800.28;6122433;29;20414;-79
2022/03/01 02:09:01;;;;;;;6.97;4.00;;;;;;;-0.77;100.00;102792.50;6123379;29;20051;-80
2022/03/01 02:12:04;;;;;;;18.05;5.68;;;;;;;-0.78;100.00;102790.75;6114392;29;20056;-80
2022/03/01 02:15:06;;;;;;;9.48;4.57;;;;;;;-0.78;100.00;102788.16;6113968;28;20143;-80
2022/03/01 02:18:08;;;;;;;7.78;5.05;;;;;;;-0.81;100.00;102782.94;6114681;29;20052;-80
2022/03/01 02:21:11;;;;;;;8.90;4.15;;;;;;;-0.78;100.00;102789.03;6111492;29;20090;-80
2022/03/01 02:24:12;;;;;;;10.27;5.20;;;;;;;-0.74;100.00;102795.16;6111992;29;20570;-80
2022/03/01 02:27:14;;;;;;;9.52;3.83;;;;;;;-0.74;100.00;102789.13;6112318;29;20063;-81
2022/03/01 02:30:15;;;;;;;7.90;4.18;;;;;;;-0.74;100.00;102802.91;6112071;29;20048;-80
2022/03/01 02:33:16;;;;;;;8.45;4.25;;;;;;;-0.72;100.00;102788.34;6114095;28;20154;-79
2022/03/01 02:36:19;;;;;;;14.95;5.95;;;;;;;-0.74;100.00;102786.53;6104930;28;20048;-80
2022/03/01 02:39:20;;;;;;;15.45;5.18;;;;;;;-0.83;100.00;102782.00;6102766;28;20056;-79
2022/03/01 02:42:22;;;;;;;10.90;4.13;;;;;;;-0.81;100.00;102786.41;6102252;28;20052;-80
2022/03/01 02:45:24;;;;;;;12.50;4.40;;;;;;;-0.77;100.00;102782.19;6102567;28;20052;-80
2022/03/01 02:48:25;;;;;;;13.35;5.18;;;;;;;-0.74;100.00;102779.66;6102500;28;20100;-80
2022/03/01 02:51:28;;;;;;;5.80;3.45;;;;;;;-0.74;100.00;102782.25;6109322;28;20048;-80
2022/03/01 02:54:31;;;;;;;9.52;4.15;;;;;;;-0.80;100.00;102777.81;6140181;28;20082;-80
2022/03/01 02:57:33;;;;;;;9.98;4.93;;;;;;;-0.83;100.00;102775.13;6135061;29;20143;-80
2022/03/01 03:00:34;;;;;;;7.30;4.45;;;;;;;-0.96;100.00;102778.22;6143750;28;20051;-80
2022/03/01 03:03:36;;;;;;;9.45;4.50;;;;;;;-1.11;100.00;102777.81;6125554;29;20055;-80
2022/03/01 03:06:38;;;;;;;10.77;4.95;;;;;;;-1.21;100.00;102771.53;6133487;29;20052;-80
2022/03/01 03:09:39;;;;;;;13.27;4.70;;;;;;;-1.16;100.00;102780.28;6125443;29;20048;-80
2022/03/01 03:12:41;;;;;;;9.18;3.78;;;;;;;-1.10;100.00;102779.56;6127667;29;20062;-80
2022/03/01 03:15:42;;;;;;;8.52;4.43;;;;;;;-1.13;100.00;102771.75;6141089;28;20062;-80
2022/03/01 03:18:44;;;;;;;9.82;4.00;;;;;;;-1.20;100.00;102762.97;6149261;28;20055;-80
2022/03/01 03:21:47;;;;;;;10.45;3.65;;;;;;;-1.24;100.00;102768.00;6147818;28;20051;-80
2022/03/01 03:24:49;;;;;;;11.13;3.80;;;;;;;-1.21;100.00;102768.09;6148899;28;20051;-80
2022/03/01 03:27:50;;;;;;;10.68;4.03;;;;;;;-1.16;100.00;102771.66;6149026;28;20048;-80
2022/03/01 03:30:51;;;;;;;8.90;4.13;;;;;;;-1.18;100.00;102771.63;6148456;28;20055;-80
2022/03/01 03:33:53;;;;;;;10.35;3.65;;;;;;;-1.14;100.00;102775.16;6148852;28;20054;-80
2022/03/01 03:36:55;;;;;;;10.52;4.00;;;;;;;-1.11;100.00;102776.09;6149308;28;20054;-80
2022/03/01 03:39:57;;;;;;;7.45;4.50;;;;;;;-1.15;100.00;102770.81;6139550;28;20400;-80
2022/03/01 03:42:59;;;;;;;6.82;3.55;;;;;;;-1.29;100.00;102770.44;6145012;29;20082;-80
2022/03/01 03:46:00;;;;;;;9.07;4.18;;;;;;;-1.31;100.00;102764.38;6148795;28;20062;-80
2022/03/01 03:49:03;;;;;;;10.32;4.97;;;;;;;-1.40;100.00;102759.84;6148610;28;20104;-80
2022/03/01 03:52:07;;;;;;;13.00;5.07;;;;;;;-1.43;100.00;102764.03;6147575;28;20522;-80
2022/03/01 03:55:11;;;;;;;11.30;4.63;;;;;;;-1.40;100.00;102767.56;6148526;28;20063;-79
2022/03/01 03:58:13;;;;;;;8.70;4.30;;;;;;;-1.43;100.00;102766.59;6148433;28;20055;-80
2022/03/01 04:01:14;;;;;;;11.63;4.13;;;;;;;-1.48;100.00;102761.31;6147781;28;20058;-80
2022/03/01 04:04:15;;;;;;;9.57;4.20;;;;;;;-1.48;100.00;102760.44;6148525;28;20062;-80
2022/03/01 04:07:18;;;;;;;8.05;4.53;;;;;;;-1.47;100.00;102770.78;6148652;28;20047;-80
2022/03/01 04:10:20;;;;;;;10.45;4.03;;;;;;;-1.40;100.00;102766.69;6147669;28;20491;-80
2022/03/01 04:13:21;;;;;;;9.93;3.85;;;;;;;-1.33;100.00;102764.31;6147956;28;20415;-80
2022/03/01 04:16:22;;;;;;;4.50;3.15;;;;;;;-1.34;100.00;102756.53;6148207;28;20044;-80
2022/03/01 04:19:24;;;;;;;11.13;4.47;;;;;;;-1.38;100.00;102759.88;6148144;29;20047;-80
2022/03/01 04:22:27;;;;;;;15.45;4.18;;;;;;;-1.34;100.00;102767.72;6147454;28;20052;-79
2022/03/01 04:25:28;;;;;;;9.10;3.97;;;;;;;-1.33;100.00;102761.75;6147751;28;20047;-80
2022/03/01 04:28:30;;;;;;;7.93;4.47;;;;;;;-1.30;100.00;102763.53;6148329;28;20515;-80
2022/03/01 04:31:31;;;;;;;6.80;3.90;;;;;;;-1.31;100.00;102754.06;6147449;28;20054;-80
2022/03/01 04:34:32;;;;;;;5.80;3.88;;;;;;;-1.33;100.00;102748.84;6147405;28;20414;-80
2022/03/01 04:37:35;;;;;;;9.75;3.72;;;;;;;-1.32;100.00;102741.97;6147793;28;20051;-80
2022/03/01 04:40:36;;;;;;;9.02;3.65;;;;;;;-1.36;100.00;102738.47;6147422;28;20414;-79
2022/03/01 04:43:38;;;;;;;9.73;3.83;;;;;;;-1.40;100.00;102746.94;6147562;28;20055;-79
2022/03/01 04:46:39;;;;;;;9.98;4.10;;;;;;;-1.40;100.00;102735.75;6147896;28;20054;-80
2022/03/01 04:49:41;;;;;;;10.15;3.80;;;;;;;-1.42;100.00;102734.81;6147262;28;20059;-79
2022/03/01 04:52:43;;;;;;;7.57;3.83;;;;;;;-1.43;100.00;102733.09;6135303;28;20043;-79
2022/03/01 04:55:45;;;;;;;7.80;4.03;;;;;;;-1.44;100.00;102739.94;6131124;28;20048;-80
2022/03/01 04:58:46;;;;;;;13.98;5.68;;;;;;;-1.43;100.00;102730.50;6139018;29;20047;-79
2022/03/01 05:01:47;;;;;;;6.15;2.83;;;;;;;-1.45;100.00;102733.06;6127310;28;20519;-79
2022/03/01 05:04:49;;;;;;;8.73;3.38;;;;;;;-1.46;100.00;102725.25;6123403;29;20052;-80
2022/03/01 05:07:51;;;;;;;11.93;4.03;;;;;;;-1.49;100.00;102725.19;6123482;29;20419;-79
2022/03/01 05:10:53;;;;;;;13.18;4.32;;;;;;;-1.50;100.00;102733.72;6122634;29;20062;-80
2022/03/01 05:13:54;;;;;;;16.20;4.93;;;;;;;-1.53;100.00;102734.53;6123124;29;20430;-80
2022/03/01 05:16:55;;;;;;;6.63;3.15;;;;;;;-1.57;100.00;102738.72;6139154;29;20051;-80
2022/03/01 05:19:57;;;;;;;10.05;4.10;;;;;;;-1.59;100.00;102732.66;6123301;29;20056;-80
2022/03/01 05:22:59;;;;;;;5.50;2.75;;;;;;;-1.60;100.00;102745.47;6122783;29;20056;-79
2022/03/01 05:26:01;;;;;;;5.78;3.38;;;;;;;-1.66;100.00;102741.03;6123450;29;20522;-79
2022/03/01 05:29:02;;;;;;;8.90;3.95;;;;;;;-1.67;100.00;102744.44;6123660;28;20048;-80
2022/03/01 05:32:04;;;;;;;5.90;3.17;;;;;;;-1.66;100.00;102730.72;6122707;29;20055;-80
2022/03/01 05:35:09;;;;;;;8.40;3.90;;;;;;;-1.66;100.00;102737.59;6123559;29;20059;-79
2022/03/01 05:38:12;;;;;;;7.32;3.65;;;;;;;-1.69;100.00;102733.19;6123084;29;20161;-80
2022/03/01 05:41:14;;;;;;;8.38;3.70;;;;;;;-1.70;100.00;102726.31;6122950;29;20149;-79
2022/03/01 05:44:15;;;;;;;11.20;3.40;;;;;;;-1.73;100.00;102741.66;6125250;29;20507;-79
2022/03/01 05:47:17;;;;;;;17.73;5.35;;;;;;;-1.74;100.00;102749.38;6127663;29;20048;-79
2022/03/01 05:50:19;;;;;;;5.03;3.00;;;;;;;-1.75;100.00;102739.91;6126727;29;20067;-80
2022/03/01 05:53:22;;;;;;;8.32;4.13;;;;;;;-1.78;100.00;102743.25;6127445;29;20056;-79
2022/03/01 05:56:23;;;;;;;6.18;3.65;;;;;;;-1.76;100.00;102739.03;6127028;29;20059;-79
2022/03/01 05:59:25;;;;;;;7.47;3.92;;;;;;;-1.79;100.00;102736.34;6127233;29;20048;-79
2022/03/01 06:02:26;;;;;;;14.23;4.82;;;;;;;-1.78;100.00;102732.94;6131813;29;20047;-79
2022/03/01 06:05:28;;;;;;;6.97;3.67;;;;;;;-1.79;100.00;102731.19;6136341;28;20048;-79
2022/03/01 06:08:31;;;;;;;5.50;3.72;;;;;;;-1.84;100.00;102738.78;6142621;28;20059;-79
2022/03/01 06:11:33;;;;;;;7.78;2.60;;;;;;;-1.83;100.00;102737.09;6132251;28;20086;-79
2022/03/01 06:14:35;;;;;;;11.80;3.78;;;;;;;-1.80;100.00;102739.75;6126472;29;20054;-80
2022/03/01 06:17:36;;;;;;;7.90;3.38;;;;;;;-1.80;100.00;102747.50;6135363;28;20047;-79
2022/03/01 06:20:37;;;;;;;8.70;4.53;;;;;;;-1.83;100.00;102742.22;6103877;28;20052;-80
2022/03/01 06:23:40;;;;;;;7.10;4.07;;;;;;;-1.79;100.00;102741.50;6103129;28;20058;-79
2022/03/01 06:26:42;;;;;;;5.72;2.85;;;;;;;-1.81;100.00;102753.47;6103645;28;20052;-79
2022/03/01 06:29:44;;;;;;;9.48;3.95;;;;;;;-1.80;100.00;102757.81;6102957;28;20060;-80
2022/03/01 06:32:46;;;;;;;9.65;4.22;;;;;;;-1.74;100.00;102762.25;6112927;29;20089;-80
2022/03/01 06:35:48;;;;;;;10.63;3.55;;;;;;;-1.72;100.00;102755.47;6192768;28;20051;-80
2022/03/01 06:38:59;;;;;;;8.77;4.65;;;;;;;-1.71;100.00;102770.97;6145579;28;20492;-80
2022/03/01 06:42:00;;;;;;;10.38;3.47;;;;;;;-1.66;100.00;102771.09;6127948;29;20055;-80
2022/03/01 06:45:02;;;;;;;7.10;3.67;;;;;;;-1.65;100.00;102778.88;6143183;28;20561;-79
2022/03/01 06:48:06;;;;;;;9.00;3.63;;;;;;;-1.62;100.00;102778.09;6113584;29;20051;-79
2022/03/01 06:51:07;;;;;;;9.60;4.60;;;;;;;-1.59;100.00;102766.19;6112572;29;20048;-80
2022/03/01 06:54:10;;;;;;;14.90;4.13;;;;;;;-1.55;100.00;102762.81;6124773;28;20408;-80
2022/03/01 06:57:11;;;;;;;10.88;5.20;;;;;;;-1.48;100.00;102761.31;6130286;29;20077;-80
2022/03/01 07:00:14;;;;;;;11.98;4.97;;;;;;;-1.42;100.00;102763.19;6112213;28;20055;-80
2022/03/01 07:03:15;;;;;;;5.30;3.35;;;;;;;-1.39;100.00;102764.16;6120975;28;20075;-80
2022/03/01 07:06:17;;;;;;;9.23;4.00;;;;;;;-1.39;100.00;102763.28;6129110;28;20051;-79
2022/03/01 07:09:20;;;;;;;12.13;4.35;;;;;;;-1.39;100.00;102756.41;6122705;28;20051;-80
2022/03/01 07:12:21;;;;;;;11.57;4.10;;;;;;;-1.35;100.00;102750.53;6165519;28;20151;-81
2022/03/01 07:15:22;;;;;;;6.90;3.15;;;;;;;-1.29;100.00;102763.56;6125936;29;20090;-79
2022/03/01 07:18:24;;;;;;;6.30;3.53;;;;;;;-1.24;100.00;102763.69;6125468;29;20052;-80
2022/03/01 07:21:25;;;;;;;6.55;3.05;;;;;;;-1.21;100.00;102755.19;6125195;29;20070;-79
2022/03/01 07:24:29;;;;;;;11.07;5.25;;;;;;;-1.15;100.00;102753.63;6125571;29;20059;-79
2022/03/01 07:27:30;;;;;;;10.85;3.53;;;;;;;-1.10;100.00;102761.50;6134348;29;20142;-80
2022/03/01 07:30:32;;;;;;;13.55;3.70;;;;;;;-1.08;100.00;102763.31;6142412;29;20055;-79
2022/03/01 07:33:33;;;;;;;8.43;3.00;;;;;;;-1.00;100.00;102765.19;6178562;28;20055;-79
2022/03/01 07:36:34;;;;;;;9.73;4.38;;;;;;;-0.87;100.00;102764.69;6152948;28;20436;-79
2022/03/01 07:39:37;;;;;;;8.77;4.43;;;;;;;-0.82;100.00;102771.75;6138577;28;20051;-79
2022/03/01 07:42:39;;;;;;;12.27;5.25;;;;;;;-0.71;100.00;102756.53;6142484;28;20427;-78
2022/03/01 07:45:40;;;;;;;12.00;4.57;;;;;;;-0.62;100.00;102763.63;6107903;29;20439;-79
2022/03/01 07:48:43;;;;;;;11.60;4.53;;;;;;;-0.52;100.00;102752.69;6112677;28;20051;-79
2022/03/01 07:51:44;;;;;;;12.25;3.95;;;;;;;-0.42;100.00;102749.47;6130632;28;20042;-78
2022/03/01 07:54:48;;;;;;;13.07;4.15;;;;;;;-0.29;100.00;102748.06;6128200;28;20487;-79
2022/03/01 07:57:50;;;;;;;10.32;4.28;;;;;;;-0.15;100.00;102750.97;6133139;28;20483;-79
2022/03/01 08:00:51;;;;;;;10.45;4.18;;;;;;;-0.05;100.00;102743.47;6135044;28;20049;-79
2022/03/01 08:03:52;;;;;;;7.65;3.13;;;;;;;0.07;100.00;102747.19;6205737;28;20049;-78
2022/03/01 08:06:54;;;;;;;10.68;4.53;;;;;;;0.24;100.00;102753.59;6210555;28;20044;-79
2022/03/01 08:09:56;;;;;;;11.07;4.90;;;;;;;0.34;100.00;102752.94;6127462;29;20047;-78
2022/03/01 08:12:58;;;;;;;9.30;4.40;;;;;;;0.39;100.00;102758.22;6138721;28;20051;-78
2022/03/01 08:15:59;;;;;;;11.93;3.22;;;;;;;0.41;100.00;102748.75;6146800;28;20058;-78
2022/03/01 08:19:00;;;;;;;11.02;4.55;;;;;;;0.56;100.00;102748.22;6150706;28;20055;-78
2022/03/01 08:22:02;;;;;;;14.43;4.57;;;;;;;0.55;100.00;102754.25;6148154;28;20422;-78
2022/03/01 08:25:08;;;;;;;15.55;5.72;;;;;;;0.59;100.00;102749.16;6139457;28;20093;-80
2022/03/01 08:28:09;;;;;;;8.35;4.20;;;;;;;0.60;100.00;102745.72;6122885;29;20044;-81
2022/03/01 08:31:10;;;;;;;10.02;4.40;;;;;;;0.55;100.00;102744.75;6148794;28;20054;-80
2022/03/01 08:34:12;;;;;;;8.23;3.33;;;;;;;0.55;100.00;102739.59;6161990;28;20057;-81
2022/03/01 08:37:13;;;;;;;9.15;3.88;;;;;;;0.67;100.00;102749.28;6169202;28;20053;-81
2022/03/01 08:40:18;;;;;;;11.27;4.70;;;;;;;0.73;100.00;102739.09;6139413;28;20047;-78
2022/03/01 08:43:21;;;;;;;14.48;5.32;;;;;;;0.75;100.00;102742.56;6134673;28;20060;-78
2022/03/01 08:46:23;;;;;;;7.72;4.18;;;;;;;0.79;100.00;102731.44;6180669;28;20100;-78
2022/03/01 08:49:25;;;;;;;10.52;5.45;;;;;;;0.84;100.00;102731.50;6223147;28;20045;-80
2022/03/01 08:52:26;;;;;;;13.70;4.90;;;;;;;0.85;100.00;102734.13;6169478;28;20078;-80
2022/03/01 08:55:29;;;;;;;16.30;5.05;;;;;;;0.90;100.00;102732.47;6138665;28;20062;-79
2022/03/01 08:58:30;;;;;;;11.80;4.72;;;;;;;1.00;100.00;102734.41;6134094;29;20048;-79
2022/03/01 09:01:32;;;;;;;10.18;4.30;;;;;;;1.01;100.00;102730.97;6123208;28;20060;-80
2022/03/01 09:04:33;;;;;;;15.30;5.35;;;;;;;1.02;100.00;102730.13;6110136;29;20070;-78
2022/03/01 09:07:37;;;;;;;16.20;5.15;;;;;;;1.11;100.00;102719.06;6117570;28;20047;-79
2022/03/01 09:10:40;;;;;;;11.10;4.70;;;;;;;1.17;100.00;102728.66;6111728;28;20055;-80
2022/03/01 09:13:42;;;;;;;9.82;4.10;;;;;;;1.29;100.00;102728.88;6109865;29;20059;-79
2022/03/01 09:16:43;;;;;;;11.88;4.93;;;;;;;1.41;100.00;102730.78;6109157;28;20056;-80
2022/03/01 09:19:44;;;;;;;16.23;5.35;;;;;;;1.52;100.00;102727.53;6110671;28;20491;-81
2022/03/01 09:22:46;;;;;;;14.30;5.18;;;;;;;1.63;100.00;102721.63;6113682;29;20040;-81
2022/03/01 09:25:48;;;;;;;12.55;5.75;;;;;;;1.74;100.00;102720.97;6113985;29;20054;-79
2022/03/01 09:28:50;;;;;;;11.45;4.57;;;;;;;1.87;100.00;102726.34;6114386;29;20043;-77
2022/03/01 09:31:51;;;;;;;8.02;3.45;;;;;;;1.98;100.00;102711.78;6110028;29;20059;-80
2022/03/01 09:34:54;;;;;;;10.57;4.30;;;;;;;2.07;100.00;102724.88;6110867;29;20714;-78
2022/03/01 09:37:56;;;;;;;11.73;4.60;;;;;;;2.19;100.00;102726.78;6108492;28;20051;-78
2022/03/01 09:40:59;;;;;;;10.40;4.82;;;;;;;2.36;100.00;102730.44;6110012;29;20070;-79
2022/03/01 09:44:01;;;;;;;8.98;4.03;;;;;;;2.48;100.00;102727.13;6109453;29;20051;-78
2022/03/01 09:47:03;;;;;;;13.93;4.72;;;;;;;2.65;100.00;102733.41;6114348;28;20055;-79
2022/03/01 09:50:07;;;;;;;11.88;4.20;;;;;;;2.80;95.39;102732.69;6122240;29;20055;-78
2022/03/01 09:53:08;;;;;;;14.02;4.32;;;;;;;2.89;95.67;102730.19;6123071;29;20063;-81
2022/03/01 09:56:11;;;;;;;11.40;4.10;;;;;;;3.11;92.57;102715.69;6122658;29;20055;-78
2022/03/01 09:59:12;;;;;;;14.57;5.55;;;;;;;3.24;90.11;102717.53;6122933;29;20495;-80
2022/03/01 10:02:14;;;;;;;15.13;4.85;;;;;;;3.29;91.15;102714.97;6122605;29;20063;-78
2022/03/01 10:05:15;;;;;;;9.48;3.70;;;;;;;3.38;91.25;102712.47;6123469;29;20414;-78
2022/03/01 10:08:20;;;;;;;9.88;4.13;;;;;;;3.44;90.97;102714.22;6111311;29;20491;-77
2022/03/01 10:11:24;;;;;;;10.65;4.43;;;;;;;3.56;88.65;102712.59;6098745;29;20048;-78
2022/03/01 10:14:29;;;;;;;16.10;4.53;;;;;;;3.66;89.52;102715.25;6099370;28;20059;-78
2022/03/01 10:17:35;;;;;;;7.65;3.80;;;;;;;3.74;88.52;102714.47;6099065;28;20062;-78
2022/03/01 10:20:36;;;;;;;13.77;4.55;;;;;;;3.78;87.43;102717.97;6098267;28;20057;-77
2022/03/01 10:23:38;;;;;;;14.70;4.85;;;;;;;3.98;83.01;102716.34;6098553;28;20048;-78
2022/03/01 10:26:44;;;;;;;9.57;3.95;;;;;;;4.07;84.26;102715.50;6099000;28;20496;-76
2022/03/01 10:29:47;;;;;;;12.40;4.55;;;;;;;4.14;84.13;102711.22;6098342;29;20486;-78
2022/03/01 10:32:48;;;;;;;8.52;3.58;;;;;;;4.50;83.51;102714.00;6102557;28;20569;-78
2022/03/01 10:35:57;;;;;;;9.93;4.43;;;;;;;4.73;83.69;102705.38;6126093;28;20051;-77
2022/03/01 10:39:00;;;;;;;11.90;4.63;;;;;;;5.00;83.24;102712.38;6109607;29;20040;-78
2022/03/01 10:42:05;;;;;;;8.75;4.35;;;;;;;5.02;82.15;102708.03;6126035;29;20189;-77
2022/03/01 10:45:09;;;;;;;13.20;4.75;;;;;;;5.04;79.00;102706.28;6126572;29;20047;-78
2022/03/01 10:48:13;;;;;;;10.25;3.83;;;;;;;5.11;79.82;102715.84;6125955;29;20048;-79
2022/03/01 10:51:19;;;;;;;9.60;4.30;;;;;;;5.27;79.63;102717.63;6124801;29;20056;-79
2022/03/01 10:54:31;;;;;;;13.13;4.18;;;;;;;5.49;77.32;102715.84;6141045;28;20059;-76
2022/03/01 10:57:34;;;;;;;12.50;4.47;;;;;;;5.81;75.60;102710.63;6131108;28;20054;-76
2022/03/01 11:00:36;;;;;;;13.13;4.20;;;;;;;5.92;75.35;102718.44;6141849;28;20487;-77
2022/03/01 11:03:39;;;;;;;12.68;4.35;;;;;;;6.08;74.81;102717.50;6141552;28;20059;-77
2022/03/01 11:06:41;;;;;;;8.65;3.83;;;;;;;6.19;74.58;102717.50;6149589;28;20066;-79
2022/03/01 11:09:45;;;;;;;14.57;3.97;;;;;;;6.27;72.43;102714.88;6149632;28;20510;-80
2022/03/01 11:12:48;;;;;;;10.30;3.83;;;;;;;6.30;72.20;102718.31;6138307;28;20047;-82
2022/03/01 11:16:06;;;;;;;11.73;4.63;;;;;;;6.43;71.92;102715.66;6128775;28;20047;-82
2022/03/01 11:19:25;;;;;;;11.80;4.30;;;;;;;6.51;69.19;102713.88;6124810;29;20054;-78
2022/03/01 11:22:31;;;;;;;9.70;4.43;;;;;;;6.76;72.60;102712.88;6124516;29;20048;-77
2022/03/01 11:25:38;;;;;;;12.38;4.90;;;;;;;6.96;71.45;102709.28;6125186;29;20052;-77
2022/03/01 11:28:52;;;;;;;9.25;4.47;;;;;;;7.19;70.27;102709.97;6124991;29;20407;-78
2022/03/01 11:31:58;;;;;;;16.88;5.53;;;;;;;7.33;69.21;102699.41;6124436;29;20060;-78
2022/03/01 11:35:02;;;;;;;11.38;3.97;;;;;;;7.50;68.95;102700.13;6141060;29;20055;-77
2022/03/01 11:38:07;;;;;;;17.75;4.30;;;;;;;7.41;67.50;102694.97;6131833;28;20051;-77
2022/03/01 11:41:11;;;;;;;12.52;4.45;;;;;;;7.46;67.03;102698.41;6123982;29;20052;-82
2022/03/01 11:44:18;;;;;;;8.93;4.03;;;;;;;7.58;68.24;102697.41;6140291;29;20051;-78
2022/03/01 11:47:26;;;;;;;11.95;4.50;;;;;;;7.50;69.22;102694.91;6149224;28;20081;-79
2022/03/01 11:50:31;;;;;;;12.18;5.20;;;;;;;7.34;68.55;102690.66;6148865;28;20051;-77
2022/03/01 11:53:35;;;;;;;9.85;4.53;;;;;;;7.13;68.95;102694.34;6149573;28;20070;-77
2022/03/01 11:56:39;;;;;;;10.88;4.93;;;;;;;7.01;69.70;102683.97;6149833;29;20054;-78
2022/03/01 11:59:43;;;;;;;10.65;4.97;;;;;;;6.93;70.17;102688.38;6150525;28;20391;-82
2022/03/01 12:02:46;;;;;;;13.13;4.30;;;;;;;6.91;70.95;102685.78;6141177;28;20423;-76
2022/03/01 12:05:48;;;;;;;14.10;4.75;;;;;;;6.90;70.77;102683.16;6135350;29;20043;-77
2022/03/01 12:08:57;;;;;;;20.83;5.00;;;;;;;6.83;70.70;102683.22;6124658;28;20093;-78
2022/03/01 12:12:07;;;;;;;10.00;4.78;;;;;;;6.92;70.19;102679.69;6111958;29;20119;-77
2022/03/01 12:15:11;;;;;;;;;;;;;;;6.97;73.16;102675.28;6117108;29;20054;-78
2022/03/01 12:18:15;;;;;;;17.27;5.30;;;;;;;7.08;73.89;102678.66;6111632;28;19976;-78
2022/03/01 12:21:16;;;;;;;12.80;5.53;;;;;;;7.16;72.05;102668.16;6110893;28;20052;-78
2022/03/01 12:24:18;;;;;;;11.68;4.90;;;;;;;7.16;71.44;102672.53;6114223;28;20052;-80
2022/03/01 12:27:20;;;;;;;15.57;4.78;;;;;;;7.13;70.97;102670.81;6115562;28;20059;-80
2022/03/01 12:30:24;;;;;;;12.57;5.05;;;;;;;7.07;70.15;102668.22;6111839;29;20051;-78
2022/03/01 12:33:26;;;;;;;15.55;6.03;;;;;;;7.09;69.59;102675.19;6128618;29;20070;-77
2022/03/01 12:36:29;;;;;;;11.75;5.15;;;;;;;7.19;69.52;102677.75;6141826;28;20058;-77
2022/03/01 12:39:31;;;;;;;13.63;4.95;;;;;;;7.24;69.90;102682.03;6131669;28;20190;-78
2022/03/01 12:42:33;;;;;;;12.30;5.40;;;;;;;7.28;67.79;102681.13;6124472;29;20060;-78
2022/03/01 12:45:38;;;;;;;11.90;4.95;;;;;;;7.32;68.37;102680.22;6124457;29;20064;-78
2022/03/01 12:48:43;;;;;;;9.85;5.05;;;;;;;7.28;68.46;102667.19;6124738;29;20507;-80
2022/03/01 12:51:47;;;;;;;10.55;4.82;;;;;;;7.32;69.17;102667.16;6126858;29;20062;-77
2022/03/01 12:54:49;;;;;;;12.30;4.68;;;;;;;7.56;68.87;102671.28;6134868;28;20051;-80
2022/03/01 12:57:51;;;;;;;12.05;4.47;;;;;;;7.73;67.80;102663.28;6139680;28;20451;-80
2022/03/01 13:01:04;;;;;;;17.80;4.63;;;;;;;7.85;69.43;102665.72;6145136;29;20044;-80
2022/03/01 13:04:07;;;;;;;15.75;4.90;;;;;;;7.92;66.36;102669.16;6148551;28;20138;-78
2022/03/01 13:07:08;;;;;;;10.57;4.55;;;;;;;7.85;66.43;102657.00;6135118;28;20166;-78
2022/03/01 13:10:14;;;;;;;12.65;4.93;;;;;;;7.83;66.35;102654.44;6199869;28;20517;-77
2022/03/01 13:13:15;;;;;;;16.02;4.32;;;;;;;8.07;67.87;102657.63;6137472;28;20509;-78
2022/03/01 13:16:21;;;;;;;15.48;4.80;;;;;;;8.26;68.27;102648.66;6163164;28;20053;-77
2022/03/01 13:19:27;;;;;;;10.48;4.78;;;;;;;8.36;65.61;102646.81;6138096;28;20486;-77
2022/03/01 13:22:28;;;;;;;12.43;4.80;;;;;;;8.61;65.99;102647.34;6207191;28;20049;-78
2022/03/01 13:25:29;;;;;;;9.50;4.60;;;;;;;8.84;65.94;102645.22;6240384;28;20497;-77
2022/03/01 13:28:34;;;;;;;10.00;4.35;;;;;;;9.19;63.39;102632.44;6201463;28;20059;-79
2022/03/01 13:31:38;;;;;;;13.93;4.88;;;;;;;9.46;61.44;102631.09;6216625;28;20053;-80
2022/03/01 13:34:41;;;;;;;13.40;5.38;;;;;;;9.40;60.00;102625.06;6190453;28;20499;-79
2022/03/01 13:37:43;;;;;;;17.02;5.18;;;;;;;9.55;59.34;102628.31;6188883;28;20082;-78
2022/03/01 13:40:45;;;;;;;11.85;5.03;;;;;;;9.58;59.56;102629.13;6123407;29;20047;-80
2022/03/01 13:43:46;;;;;;;11.30;4.82;;;;;;;9.74;60.75;102619.16;6140502;28;20508;-79
2022/03/01 13:46:58;;;;;;;9.90;4.25;;;;;;;9.81;57.22;102599.78;6125714;28;20044;-79
2022/03/01 13:50:04;;;;;;;13.18;5.15;;;;;;;10.16;58.78;102585.00;6122667;28;20487;-79
2022/03/01 13:53:11;;;;;;;11.02;4.63;;;;;;;10.04;57.84;102587.94;6116257;29;20097;-78
2022/03/01 13:56:14;;;;;;;13.95;5.43;;;;;;;9.60;59.08;102593.19;6154696;28;20068;-78
2022/03/01 13:59:21;;;;;;;10.98;4.50;;;;;;;9.57;60.75;102588.00;6244225;28;20049;-78
2022/03/01 14:02:23;;;;;;;10.70;4.32;;;;;;;9.63;60.16;102585.25;6243818;28;20049;-78